Time;durP1;ratioP1;P1;durP2;ratioP2;P2;SDS_P1;SDS_P2;PMS_P1;PMS_P2;Temp;Humidity;BMP_temperature;BMP_pressure;BME280_temperature;BME280_humidity;BME280_pressure;Samples;Min_cycle;Max_cycle;Signal;HPM_P1;HPM_P2
2021/10/21 00:00:51;;;;;;;6.97;1.70;;;22.10;99.90;;;;;;5091733;28;20187;-75
2021/10/21 00:03:18;;;;;;;2.57;0.90;;;21.90;99.90;;;;;;5091425;28;20183;-74
2021/10/21 00:05:45;;;;;;;4.50;0.97;;;21.70;99.90;;;;;;5111264;28;20577;-73
2021/10/21 00:08:13;;;;;;;4.83;1.23;;;21.80;99.90;;;;;;5095171;28;20173;-75
2021/10/21 00:10:43;;;;;;;5.30;1.40;;;22.30;99.90;;;;;;5093382;28;20206;-75
2021/10/21 00:13:10;;;;;;;6.27;1.67;;;22.50;99.90;;;;;;5092366;28;20213;-74
2021/10/21 00:15:38;;;;;;;6.17;1.40;;;22.40;99.90;;;;;;5091775;28;20187;-74
2021/10/21 00:18:05;;;;;;;4.33;1.30;;;22.80;99.90;;;;;;5081654;28;20182;-75
2021/10/21 00:20:33;;;;;;;5.10;1.20;;;22.60;99.90;;;;;;5087744;28;20541;-73
2021/10/21 00:23:00;;;;;;;5.77;1.67;;;22.70;99.90;;;;;;5104300;28;20217;-73
2021/10/21 00:25:27;;;;;;;7.77;1.30;;;22.70;99.90;;;;;;5087181;28;20266;-74
2021/10/21 00:27:55;;;;;;;5.30;1.20;;;22.90;99.90;;;;;;5085047;28;20191;-76
2021/10/21 00:30:22;;;;;;;4.23;1.07;;;23.10;99.90;;;;;;5091343;28;20205;-73
2021/10/21 00:32:50;;;;;;;5.50;1.23;;;23.10;99.90;;;;;;5093976;28;20683;-73
2021/10/21 00:35:18;;;;;;;2.00;0.93;;;23.60;99.90;;;;;;5093356;28;20183;-75
2021/10/21 00:37:45;;;;;;;6.20;1.00;;;23.70;99.90;;;;;;5083702;28;20175;-74
2021/10/21 00:40:13;;;;;;;3.67;1.00;;;23.50;99.90;;;;;;5089878;28;20214;-74
2021/10/21 00:42:40;;;;;;;4.73;1.47;;;23.20;99.90;;;;;;5092976;28;20186;-74
2021/10/21 00:45:08;;;;;;;2.97;1.20;;;22.80;99.90;;;;;;5093260;28;20200;-75
2021/10/21 00:47:35;;;;;;;2.50;0.90;;;22.80;99.90;;;;;;5092877;28;20191;-74
2021/10/21 00:50:03;;;;;;;5.10;1.23;;;23.30;99.90;;;;;;5093319;28;20185;-74
2021/10/21 00:52:31;;;;;;;2.10;0.80;;;23.70;99.90;;;;;;5093752;28;20624;-74
2021/10/21 00:54:59;;;;;;;4.30;1.50;;;23.40;99.90;;;;;;5090047;28;20187;-74
2021/10/21 00:57:27;;;;;;;2.73;0.70;;;23.30;99.90;;;;;;5093211;28;20189;-77
2021/10/21 00:59:55;;;;;;;5.10;1.10;;;23.60;99.80;;;;;;5091654;28;20676;-76
2021/10/21 01:02:22;;;;;;;2.07;0.73;;;23.60;99.90;;;;;;5092262;28;20263;-76
2021/10/21 01:04:50;;;;;;;2.70;0.90;;;23.80;99.90;;;;;;5093436;28;20214;-74
2021/10/21 01:07:18;;;;;;;2.90;1.03;;;23.90;99.90;;;;;;5084266;28;20191;-76
2021/10/21 01:09:46;;;;;;;4.50;1.10;;;23.90;99.30;;;;;;5079376;28;20178;-73
2021/10/21 01:12:13;;;;;;;4.37;1.40;;;23.50;99.30;;;;;;5090946;28;20220;-75
2021/10/21 01:14:42;;;;;;;2.90;0.80;;;23.70;99.70;;;;;;5091369;28;20535;-73
2021/10/21 01:17:13;;;;;;;2.30;0.80;;;24.10;99.30;;;;;;5093105;28;20555;-75
2021/10/21 01:19:40;;;;;;;2.73;0.80;;;24.10;98.70;;;;;;5092772;28;20181;-74
2021/10/21 01:22:08;;;;;;;1.53;0.73;;;24.40;98.50;;;;;;5089441;28;20193;-76
2021/10/21 01:24:35;;;;;;;2.30;1.23;;;24.40;98.20;;;;;;5084847;28;20226;-75
2021/10/21 01:27:03;;;;;;;3.13;0.70;;;24.80;98.00;;;;;;5089971;28;20240;-76
2021/10/21 01:29:31;;;;;;;2.43;0.80;;;24.90;98.30;;;;;;5090938;28;20229;-73
2021/10/21 01:31:58;;;;;;;6.80;1.10;;;25.00;97.80;;;;;;5091378;28;20308;-72
2021/10/21 01:34:26;;;;;;;2.67;0.80;;;24.70;97.80;;;;;;5091099;28;20228;-73
2021/10/21 01:36:54;;;;;;;2.07;0.80;;;24.30;98.10;;;;;;5092940;28;20197;-72
2021/10/21 01:39:22;;;;;;;3.87;1.03;;;24.60;97.60;;;;;;5092134;28;20534;-74
2021/10/21 01:41:50;;;;;;;4.40;0.87;;;24.70;96.80;;;;;;5092579;28;20248;-73
2021/10/21 01:44:19;;;;;;;3.10;0.90;;;24.20;97.30;;;;;;5076017;28;20575;-74
2021/10/21 01:46:46;;;;;;;3.90;1.00;;;24.40;97.30;;;;;;5080471;28;20180;-75
2021/10/21 01:49:13;;;;;;;2.70;1.20;;;24.90;97.00;;;;;;5079462;28;20177;-73
2021/10/21 01:51:41;;;;;;;4.27;1.03;;;25.10;96.90;;;;;;5091220;28;20225;-72
2021/10/21 01:54:08;;;;;;;3.17;1.20;;;25.10;97.10;;;;;;5087873;28;20240;-71
2021/10/21 01:56:36;;;;;;;4.80;1.00;;;25.20;96.60;;;;;;5092668;28;20224;-74
2021/10/21 01:59:03;;;;;;;2.73;0.80;;;24.40;97.60;;;;;;5092460;28;20178;-74
2021/10/21 02:01:31;;;;;;;4.00;1.27;;;24.60;97.70;;;;;;5092216;28;20356;-74
2021/10/21 02:03:59;;;;;;;2.97;0.70;;;25.30;96.90;;;;;;5092288;28;20166;-73
2021/10/21 02:06:26;;;;;;;3.37;1.30;;;25.50;96.00;;;;;;5089496;28;20178;-73
2021/10/21 02:08:53;;;;;;;2.53;1.00;;;25.90;95.90;;;;;;5092328;28;20209;-75
2021/10/21 02:11:21;;;;;;;5.27;1.10;;;25.90;95.70;;;;;;5087239;28;20175;-75
2021/10/21 02:13:48;;;;;;;1.73;1.03;;;25.90;95.30;;;;;;5080224;28;20245;-75
2021/10/21 02:16:16;;;;;;;6.47;1.37;;;25.40;96.10;;;;;;5092189;28;20179;-74
2021/10/21 02:18:44;;;;;;;4.73;1.40;;;25.50;96.20;;;;;;5092271;28;20167;-75
2021/10/21 02:21:11;;;;;;;3.03;0.80;;;26.00;95.70;;;;;;5092688;28;20637;-75
2021/10/21 02:23:39;;;;;;;5.17;1.37;;;25.60;95.30;;;;;;5092148;28;20554;-76
2021/10/21 02:26:06;;;;;;;2.03;1.00;;;25.60;95.70;;;;;;5092535;28;20170;-74
2021/10/21 02:28:33;;;;;;;2.20;0.80;;;25.90;95.30;;;;;;5091912;28;20179;-72
2021/10/21 02:31:01;;;;;;;2.20;1.10;;;25.80;95.10;;;;;;5091857;28;20304;-75
2021/10/21 02:33:28;;;;;;;5.23;0.93;;;25.90;95.00;;;;;;5077701;28;20620;-74
2021/10/21 02:35:55;;;;;;;4.93;1.00;;;25.90;95.70;;;;;;5076046;28;20163;-74
2021/10/21 02:38:23;;;;;;;3.13;0.90;;;26.00;94.90;;;;;;5092376;28;20626;-76
2021/10/21 02:40:50;;;;;;;2.73;0.90;;;26.10;93.80;;;;;;5091941;28;20167;-75
2021/10/21 02:43:18;;;;;;;3.40;1.23;;;26.20;93.30;;;;;;5091635;28;20214;-73
2021/10/21 02:45:45;;;;;;;3.20;0.97;;;26.50;93.30;;;;;;5091157;28;20166;-75
2021/10/21 02:48:12;;;;;;;4.47;1.23;;;26.40;93.20;;;;;;5091849;28;20259;-76
2021/10/21 02:50:40;;;;;;;3.43;1.10;;;26.30;94.30;;;;;;5092823;28;20167;-75
2021/10/21 02:53:07;;;;;;;4.63;1.10;;;26.30;94.60;;;;;;5095678;28;20275;-74
2021/10/21 02:55:34;;;;;;;4.33;0.80;;;26.30;91.70;;;;;;5095723;28;20525;-73
2021/10/21 02:58:02;;;;;;;3.13;1.20;;;26.60;87.20;;;;;;5095300;28;20198;-73
2021/10/21 03:00:29;;;;;;;3.13;0.83;;;26.10;91.20;;;;;;5095849;28;20175;-72
2021/10/21 03:02:56;;;;;;;1.80;0.73;;;25.80;91.70;;;;;;5095625;28;20174;-75
2021/10/21 03:05:24;;;;;;;1.43;0.83;;;26.50;91.30;;;;;;5095834;28;20217;-74
2021/10/21 03:07:52;;;;;;;3.30;0.70;;;26.60;90.60;;;;;;5088304;28;20258;-78
2021/10/21 03:10:19;;;;;;;2.30;0.90;;;26.50;90.50;;;;;;5075790;28;20187;-75
2021/10/21 03:12:47;;;;;;;2.13;0.93;;;26.50;91.30;;;;;;5093573;28;20325;-74
2021/10/21 03:15:14;;;;;;;1.70;0.67;;;26.30;90.50;;;;;;5078005;28;20258;-74
2021/10/21 03:17:42;;;;;;;1.80;0.80;;;26.10;89.50;;;;;;5076270;28;20179;-75
2021/10/21 03:20:12;;;;;;;5.83;1.30;;;26.00;90.40;;;;;;5095198;28;20484;-73
2021/10/21 03:22:41;;;;;;;7.07;1.20;;;26.20;89.50;;;;;;5088055;28;20653;-74
2021/10/21 03:25:10;;;;;;;3.63;0.90;;;26.30;90.60;;;;;;5094737;28;20189;-72
2021/10/21 03:27:38;;;;;;;3.07;1.23;;;26.40;88.20;;;;;;5109314;28;20270;-77
2021/10/21 03:30:07;;;;;;;5.63;0.90;;;26.70;89.40;;;;;;5081523;28;20183;-79
2021/10/21 03:32:35;;;;;;;3.43;0.97;;;26.60;90.90;;;;;;5078749;28;20581;-72
2021/10/21 03:35:03;;;;;;;3.87;0.70;;;26.80;90.40;;;;;;5089340;28;20274;-74
2021/10/21 03:37:31;;;;;;;2.40;0.93;;;26.60;89.30;;;;;;5094749;28;20167;-74
2021/10/21 03:39:58;;;;;;;2.83;1.13;;;26.50;89.00;;;;;;5094650;28;20179;-77
2021/10/21 03:42:26;;;;;;;2.13;0.70;;;26.70;89.30;;;;;;5090069;28;20186;-75
2021/10/21 03:44:56;;;;;;;2.50;0.90;;;26.80;87.80;;;;;;5093430;28;20182;-78
2021/10/21 03:47:25;;;;;;;5.37;0.90;;;26.60;90.50;;;;;;5080555;28;20178;-74
2021/10/21 03:49:53;;;;;;;1.67;0.87;;;26.50;91.00;;;;;;5093020;28;20178;-75
2021/10/21 03:52:21;;;;;;;1.80;0.90;;;26.30;88.30;;;;;;5093404;28;20337;-73
2021/10/21 03:54:49;;;;;;;4.57;1.00;;;26.30;88.70;;;;;;5091740;28;20201;-76
2021/10/21 03:57:17;;;;;;;6.30;0.87;;;26.70;87.30;;;;;;5093094;28;20254;-76
2021/10/21 03:59:44;;;;;;;3.10;0.97;;;27.00;87.00;;;;;;5093601;28;20166;-74
2021/10/21 04:02:12;;;;;;;4.27;0.87;;;26.80;85.70;;;;;;5072155;28;20167;-76
2021/10/21 04:04:39;;;;;;;3.50;0.97;;;26.80;85.20;;;;;;5092370;28;20187;-75
2021/10/21 04:07:06;;;;;;;3.27;0.80;;;26.90;86.20;;;;;;5093265;28;20177;-75
2021/10/21 04:09:34;;;;;;;1.40;0.47;;;26.50;88.30;;;;;;5077302;28;20280;-75
2021/10/21 04:12:01;;;;;;;2.57;0.80;;;26.40;85.80;;;;;;5082818;28;20202;-76
2021/10/21 04:14:28;;;;;;;6.10;0.80;;;26.90;87.30;;;;;;5091549;28;20230;-76
2021/10/21 04:16:55;;;;;;;2.07;0.90;;;27.40;86.90;;;;;;5092641;28;20534;-75
2021/10/21 04:19:23;;;;;;;3.67;0.80;;;27.30;84.30;;;;;;5093197;28;20214;-75
2021/10/21 04:21:50;;;;;;;2.63;0.80;;;27.50;87.10;;;;;;5092301;28;20223;-75
2021/10/21 04:24:18;;;;;;;1.20;0.70;;;27.70;85.10;;;;;;5093660;28;20179;-73
2021/10/21 04:26:45;;;;;;;2.53;0.73;;;27.80;83.40;;;;;;5093866;28;20239;-74
2021/10/21 04:29:13;;;;;;;1.63;0.60;;;27.10;82.50;;;;;;5097580;28;20178;-74
2021/10/21 04:31:40;;;;;;;2.77;1.20;;;26.90;83.00;;;;;;5092243;28;20202;-73
2021/10/21 04:34:07;;;;;;;1.13;0.67;;;27.10;82.70;;;;;;5093813;28;20363;-76
2021/10/21 04:36:35;;;;;;;3.63;0.80;;;27.40;81.00;;;;;;5093936;28;20589;-75
2021/10/21 04:39:02;;;;;;;1.93;0.73;;;27.20;84.40;;;;;;5093129;28;20692;-74
2021/10/21 04:41:29;;;;;;;1.90;0.87;;;27.10;85.60;;;;;;5099988;28;20174;-74
2021/10/21 04:43:57;;;;;;;5.70;1.17;;;27.00;87.00;;;;;;5092351;28;20209;-76
2021/10/21 04:46:24;;;;;;;2.03;0.63;;;26.70;87.10;;;;;;5089094;28;20534;-74
2021/10/21 04:48:52;;;;;;;4.23;0.87;;;27.10;84.70;;;;;;5093573;28;20179;-73
2021/10/21 04:51:19;;;;;;;5.27;0.73;;;27.00;86.70;;;;;;5097701;28;20178;-75
2021/10/21 04:53:47;;;;;;;4.30;0.80;;;27.20;88.00;;;;;;5090335;28;20243;-75
2021/10/21 04:56:14;;;;;;;2.33;0.90;;;27.00;88.50;;;;;;5084698;28;20206;-74
2021/10/21 04:58:41;;;;;;;2.43;0.70;;;27.60;86.80;;;;;;5088372;28;20654;-76
2021/10/21 05:01:10;;;;;;;2.03;1.00;;;27.30;86.90;;;;;;5084714;28;20256;-76
2021/10/21 05:03:37;;;;;;;5.30;0.70;;;27.40;86.90;;;;;;5092380;28;20510;-75
2021/10/21 05:06:04;;;;;;;4.77;1.00;;;27.40;86.50;;;;;;5091992;28;20178;-74
2021/10/21 05:08:32;;;;;;;5.20;0.90;;;26.90;86.90;;;;;;5087824;28;20178;-76
2021/10/21 05:10:59;;;;;;;1.63;0.90;;;27.00;87.70;;;;;;5090038;28;20588;-76
2021/10/21 05:13:26;;;;;;;3.70;0.90;;;27.10;84.70;;;;;;5091072;28;20268;-74
2021/10/21 05:15:54;;;;;;;1.90;0.57;;;27.20;85.60;;;;;;5089972;28;21860;-76
2021/10/21 05:18:21;;;;;;;4.80;0.70;;;26.60;87.90;;;;;;5083673;28;20182;-76
2021/10/21 05:20:48;;;;;;;2.50;0.80;;;26.90;88.10;;;;;;5088096;28;20186;-74
2021/10/21 05:23:16;;;;;;;2.70;1.03;;;26.70;87.90;;;;;;5088304;28;20663;-78
2021/10/21 05:25:43;;;;;;;2.07;0.73;;;26.50;90.60;;;;;;5089399;28;20178;-75
2021/10/21 05:28:11;;;;;;;2.80;0.80;;;27.00;89.70;;;;;;5085743;28;20189;-75
2021/10/21 05:30:40;;;;;;;5.50;0.80;;;26.70;89.50;;;;;;5091162;28;20232;-76
2021/10/21 05:33:07;;;;;;;2.60;0.87;;;26.40;90.20;;;;;;5092159;28;20222;-75
2021/10/21 05:35:35;;;;;;;5.40;0.93;;;26.50;89.70;;;;;;5092148;28;20600;-76
2021/10/21 05:38:02;;;;;;;2.70;0.60;;;26.70;89.00;;;;;;5089780;28;20205;-74
2021/10/21 05:40:29;;;;;;;4.20;1.20;;;26.60;89.00;;;;;;5086491;28;20164;-75
2021/10/21 05:42:57;;;;;;;3.07;0.80;;;27.40;89.00;;;;;;5091444;28;20633;-74
2021/10/21 05:45:24;;;;;;;3.43;0.90;;;27.00;88.40;;;;;;5092045;28;20233;-75
2021/10/21 05:47:52;;;;;;;1.83;0.70;;;27.00;90.10;;;;;;5091864;28;20179;-74
2021/10/21 05:50:19;;;;;;;3.63;0.90;;;26.70;87.00;;;;;;5088903;28;20284;-76
2021/10/21 05:52:47;;;;;;;6.20;1.00;;;26.50;88.80;;;;;;5089657;28;20221;-75
2021/10/21 05:55:14;;;;;;;2.43;0.67;;;26.70;88.00;;;;;;5090697;28;20312;-75
2021/10/21 05:57:42;;;;;;;1.97;0.70;;;26.70;87.40;;;;;;5084985;28;20209;-75
2021/10/21 06:00:10;;;;;;;4.73;1.00;;;26.40;86.70;;;;;;5089624;28;20774;-77
2021/10/21 06:02:37;;;;;;;1.57;0.50;;;26.40;89.10;;;;;;5086388;28;20193;-74
2021/10/21 06:05:06;;;;;;;1.93;1.10;;;26.60;89.10;;;;;;5088369;28;20194;-74
2021/10/21 06:07:34;;;;;;;3.20;0.70;;;26.70;90.10;;;;;;5090523;28;20765;-77
2021/10/21 06:10:01;;;;;;;7.33;0.93;;;26.80;89.40;;;;;;5088126;28;20209;-76
2021/10/21 06:12:28;;;;;;;2.63;1.10;;;26.70;90.40;;;;;;5091004;28;20209;-72
2021/10/21 06:14:56;;;;;;;2.20;0.90;;;26.50;90.40;;;;;;5090905;28;20197;-76
2021/10/21 06:17:24;;;;;;;6.33;1.20;;;26.30;91.00;;;;;;5091068;28;20257;-78
2021/10/21 06:19:52;;;;;;;2.80;0.70;;;26.10;90.60;;;;;;5091157;28;20593;-74
2021/10/21 06:22:20;;;;;;;4.67;0.80;;;25.90;91.30;;;;;;5096260;28;20231;-77
2021/10/21 06:24:48;;;;;;;2.53;0.60;;;25.80;91.20;;;;;;5092749;28;20688;-74
2021/10/21 06:27:15;;;;;;;3.77;0.80;;;25.60;91.90;;;;;;5095014;28;20586;-74
2021/10/21 06:29:42;;;;;;;3.00;0.90;;;25.10;92.10;;;;;;5093662;28;20182;-75
2021/10/21 06:32:11;;;;;;;2.93;1.00;;;24.80;92.00;;;;;;5088645;28;20214;-73
2021/10/21 06:34:42;;;;;;;4.83;1.10;;;24.40;92.10;;;;;;5094625;28;20205;-74
2021/10/21 06:37:09;;;;;;;1.97;0.80;;;24.50;93.10;;;;;;5091155;28;20236;-75
2021/10/21 06:39:36;;;;;;;4.77;0.80;;;24.30;92.90;;;;;;5100486;28;20187;-75
2021/10/21 06:42:04;;;;;;;3.50;1.00;;;24.40;93.50;;;;;;5095075;28;20250;-75
2021/10/21 06:44:31;;;;;;;3.03;0.87;;;25.10;93.00;;;;;;5089744;28;20209;-73
2021/10/21 06:46:59;;;;;;;3.67;0.87;;;25.00;92.30;;;;;;5092538;28;20186;-76
2021/10/21 06:49:26;;;;;;;2.87;0.80;;;24.50;92.60;;;;;;5095375;28;20297;-75
2021/10/21 06:51:54;;;;;;;4.83;0.80;;;24.30;93.30;;;;;;5088462;28;20274;-74
2021/10/21 06:54:21;;;;;;;1.83;0.87;;;23.80;93.70;;;;;;5098391;28;20178;-74
2021/10/21 06:56:48;;;;;;;3.20;0.70;;;23.40;94.40;;;;;;5094175;28;20644;-75
2021/10/21 06:59:16;;;;;;;3.07;1.23;;;23.00;95.50;;;;;;5092757;28;20266;-75
2021/10/21 07:01:43;;;;;;;3.77;1.00;;;23.00;96.10;;;;;;5089660;28;20194;-74
2021/10/21 07:04:11;;;;;;;2.70;0.73;;;23.20;96.00;;;;;;5085304;28;20179;-74
2021/10/21 07:06:38;;;;;;;1.40;0.80;;;23.60;95.50;;;;;;5089615;28;20205;-75
2021/10/21 07:09:06;;;;;;;3.30;0.70;;;23.80;95.40;;;;;;5094737;28;20288;-73
2021/10/21 07:11:33;;;;;;;2.97;0.70;;;23.60;95.10;;;;;;5086904;28;20270;-72
2021/10/21 07:14:01;;;;;;;2.43;0.70;;;23.40;95.70;;;;;;5086999;28;20230;-74
2021/10/21 07:16:28;;;;;;;4.23;1.00;;;23.00;96.60;;;;;;5079933;28;20642;-73
2021/10/21 07:18:55;;;;;;;2.60;0.80;;;23.20;96.70;;;;;;5084292;28;20190;-73
2021/10/21 07:21:24;;;;;;;6.47;1.43;;;23.20;96.80;;;;;;5089177;28;20205;-74
2021/10/21 07:23:51;;;;;;;3.87;1.40;;;23.50;96.50;;;;;;5094445;28;20282;-73
2021/10/21 07:26:18;;;;;;;3.47;1.10;;;23.60;96.50;;;;;;5094656;28;20189;-74
2021/10/21 07:28:45;;;;;;;4.07;1.00;;;23.60;96.30;;;;;;5094688;28;20182;-73
2021/10/21 07:31:16;;;;;;;2.43;1.00;;;23.10;96.90;;;;;;5094355;28;20181;-72
2021/10/21 07:33:44;;;;;;;5.00;1.10;;;22.90;97.60;;;;;;5092980;28;20217;-75
2021/10/21 07:36:12;;;;;;;3.63;0.80;;;22.30;98.50;;;;;;5093126;28;20224;-74
2021/10/21 07:38:40;;;;;;;5.07;1.23;;;22.10;99.20;;;;;;5095061;28;20183;-73
2021/10/21 07:41:07;;;;;;;5.33;1.43;;;21.80;99.90;;;;;;5095253;28;20206;-73
2021/10/21 07:43:36;;;;;;;1.10;0.73;;;21.60;99.90;;;;;;5087964;28;20191;-73
2021/10/21 07:46:04;;;;;;;3.07;1.07;;;21.50;99.90;;;;;;5086204;28;20261;-74
2021/10/21 07:48:32;;;;;;;5.40;1.03;;;21.40;99.90;;;;;;5087566;28;20217;-73
2021/10/21 07:50:59;;;;;;;4.90;1.07;;;21.40;99.90;;;;;;5078925;28;20584;-74
2021/10/21 07:53:31;;;;;;;4.03;0.93;;;21.30;99.90;;;;;;5082362;28;20676;-73
2021/10/21 07:56:01;;;;;;;3.47;1.23;;;21.30;99.90;;;;;;5094495;28;20173;-74
2021/10/21 07:58:28;;;;;;;5.90;1.70;;;21.10;99.90;;;;;;5094472;28;20231;-75
2021/10/21 08:00:56;;;;;;;3.87;0.93;;;21.00;99.90;;;;;;5094688;28;20261;-73
2021/10/21 08:03:24;;;;;;;4.23;1.00;;;21.00;99.90;;;;;;5094540;28;20253;-74
2021/10/21 08:05:51;;;;;;;5.13;1.83;;;20.90;99.90;;;;;;5094375;28;20171;-74
2021/10/21 08:08:19;;;;;;;2.00;0.97;;;20.80;99.90;;;;;;5082012;28;20176;-75
2021/10/21 08:10:47;;;;;;;4.57;1.40;;;20.70;99.90;;;;;;5078024;28;20183;-73
2021/10/21 08:13:15;;;;;;;2.93;1.27;;;20.70;99.90;;;;;;5092395;28;20233;-74
2021/10/21 08:15:43;;;;;;;7.30;1.40;;;20.60;99.90;;;;;;5085404;28;20171;-73
2021/10/21 08:18:14;;;;;;;5.80;1.53;;;20.60;99.90;;;;;;5087524;28;20181;-73
2021/10/21 08:20:43;;;;;;;4.23;2.00;;;20.50;99.90;;;;;;5094253;28;20233;-72
2021/10/21 08:23:11;;;;;;;6.80;1.83;;;20.60;99.90;;;;;;5093795;28;20181;-72
2021/10/21 08:25:39;;;;;;;2.63;1.70;;;20.60;99.90;;;;;;5093625;28;20656;-73
2021/10/21 08:28:06;;;;;;;3.40;2.60;;;20.70;99.90;;;;;;5093665;28;20175;-72
2021/10/21 08:30:37;;;;;;;7.80;1.73;;;20.60;99.90;;;;;;5092358;28;20175;-73
2021/10/21 08:33:05;;;;;;;3.90;2.50;;;20.60;99.90;;;;;;5081423;28;20207;-74
2021/10/21 08:35:34;;;;;;;4.17;1.73;;;20.60;99.90;;;;;;5093782;28;20572;-73
2021/10/21 08:38:02;;;;;;;4.27;1.20;;;20.60;99.90;;;;;;5093238;28;20583;-73
2021/10/21 08:40:31;;;;;;;5.00;1.47;;;20.60;99.90;;;;;;5093725;28;20210;-73
2021/10/21 08:43:04;;;;;;;4.37;1.00;;;20.40;99.90;;;;;;5093709;28;20178;-73
2021/10/21 08:45:31;;;;;;;6.03;1.27;;;20.40;99.90;;;;;;5093296;28;20171;-73
2021/10/21 08:48:03;;;;;;;3.23;1.10;;;20.40;99.90;;;;;;5093154;28;20178;-73
2021/10/21 08:50:33;;;;;;;3.83;1.10;;;20.50;99.90;;;;;;5093502;28;20204;-73
2021/10/21 08:53:05;;;;;;;2.67;1.10;;;20.40;99.90;;;;;;5093181;28;20727;-74
2021/10/21 08:55:34;;;;;;;2.67;0.90;;;20.30;99.90;;;;;;5093739;28;20179;-73
2021/10/21 08:58:05;;;;;;;1.83;1.10;;;20.40;99.90;;;;;;5093252;28;20170;-73
2021/10/21 09:00:37;;;;;;;5.97;1.60;;;20.30;99.90;;;;;;5093089;28;20525;-72
2021/10/21 09:03:07;;;;;;;2.20;1.37;;;20.30;99.90;;;;;;5093535;28;20175;-73
2021/10/21 09:05:47;;;;;;;2.83;1.10;;;20.30;99.90;;;;;;5093582;28;20239;-74
2021/10/21 09:08:18;;;;;;;5.23;1.10;;;20.20;99.90;;;;;;5086934;28;20189;-72
2021/10/21 09:10:57;;;;;;;3.33;1.20;;;20.20;99.90;;;;;;5093578;28;20597;-74
2021/10/21 09:13:28;;;;;;;5.67;1.13;;;20.20;99.90;;;;;;5091301;28;20691;-74
2021/10/21 09:16:00;;;;;;;5.97;1.20;;;20.20;99.90;;;;;;5091431;28;20190;-72
2021/10/21 09:18:48;;;;;;;4.47;1.00;;;20.20;99.90;;;;;;5092417;28;20182;-73
2021/10/21 09:21:31;;;;;;;4.47;1.27;;;20.20;99.90;;;;;;5092481;28;20579;-73
2021/10/21 09:24:30;;;;;;;3.77;1.10;;;20.30;99.90;;;;;;5073672;28;20705;-73
2021/10/21 09:27:13;;;;;;;2.67;1.20;;;20.40;99.90;;;;;;5089443;28;20182;-73
2021/10/21 09:29:47;;;;;;;2.23;0.90;;;20.50;99.90;;;;;;5091395;28;20190;-73
2021/10/21 09:32:27;;;;;;;4.27;1.30;;;20.60;99.90;;;;;;5077878;28;20207;-75
2021/10/21 09:34:59;;;;;;;8.23;1.70;;;20.60;99.90;;;;;;5092324;28;20632;-74
2021/10/21 09:37:42;;;;;;;3.60;1.13;;;20.60;99.90;;;;;;5091640;28;20170;-74
2021/10/21 09:40:13;;;;;;;3.93;1.40;;;20.60;99.90;;;;;;5092017;28;20580;-73
2021/10/21 09:42:44;;;;;;;4.97;1.20;;;20.60;99.90;;;;;;5091517;28;20201;-74
2021/10/21 09:45:19;;;;;;;6.00;1.30;;;20.60;99.90;;;;;;5091306;28;20633;-73
2021/10/21 09:47:50;;;;;;;4.03;1.20;;;20.50;99.90;;;;;;5090777;28;20182;-74
2021/10/21 09:50:32;;;;;;;5.30;1.03;;;20.50;99.90;;;;;;5091511;28;20213;-73
2021/10/21 09:53:10;;;;;;;3.67;0.90;;;20.40;99.90;;;;;;5090918;28;20300;-75
2021/10/21 09:55:39;;;;;;;3.53;1.30;;;20.40;99.90;;;;;;5091752;28;20521;-72
2021/10/21 09:58:09;;;;;;;2.40;1.30;;;20.50;99.90;;;;;;5089526;28;20540;-73
2021/10/21 10:00:38;;;;;;;5.33;1.40;;;20.50;99.90;;;;;;5090049;28;20313;-73
2021/10/21 10:03:17;;;;;;;6.33;1.50;;;20.50;99.90;;;;;;5091649;28;20182;-72
2021/10/21 10:05:49;;;;;;;5.63;1.20;;;20.60;99.90;;;;;;5086803;28;20586;-75
2021/10/21 10:08:23;;;;;;;4.03;1.40;;;20.60;99.90;;;;;;5076376;28;20523;-74
2021/10/21 10:10:53;;;;;;;3.37;1.47;;;20.60;99.90;;;;;;5086584;28;20218;-73
2021/10/21 10:13:22;;;;;;;3.17;1.37;;;20.60;99.90;;;;;;4991889;28;2828844;-74
2021/10/21 10:15:52;;;;;;;3.63;1.30;;;20.50;99.90;;;;;;5091859;28;20179;-74
2021/10/21 10:18:23;;;;;;;2.70;1.30;;;20.50;99.90;;;;;;5091421;28;20185;-75
2021/10/21 10:20:55;;;;;;;5.57;1.43;;;20.40;99.90;;;;;;5086505;28;20183;-75
2021/10/21 10:23:23;;;;;;;14.10;1.50;;;20.40;99.90;;;;;;5090601;28;20702;-74
2021/10/21 10:25:52;;;;;;;6.70;1.73;;;20.30;99.90;;;;;;5092411;28;20178;-73
2021/10/21 10:28:20;;;;;;;9.83;2.23;;;20.20;99.90;;;;;;5092072;28;20202;-74
2021/10/21 10:30:58;;;;;;;8.33;1.47;;;20.20;99.90;;;;;;5089031;28;20266;-73
2021/10/21 10:33:35;;;;;;;4.33;1.60;;;20.30;99.90;;;;;;5088700;28;20248;-73
2021/10/21 10:36:30;;;;;;;8.33;1.67;;;20.30;99.90;;;;;;5092302;28;20190;-72
2021/10/21 10:39:37;;;;;;;11.57;2.17;;;20.20;99.90;;;;;;5090935;28;20447;-73
2021/10/21 10:42:05;;;;;;;13.57;1.87;;;20.20;99.90;;;;;;5073170;28;20202;-73
2021/10/21 10:44:35;;;;;;;4.53;1.40;;;20.10;99.90;;;;;;5086805;28;20577;-73
2021/10/21 10:47:12;;;;;;;3.07;1.43;;;20.00;99.90;;;;;;5073943;28;20229;-74
2021/10/21 10:49:39;;;;;;;6.23;1.70;;;20.00;99.90;;;;;;5090050;28;20174;-76
2021/10/21 10:52:12;;;;;;;2.33;1.27;;;20.00;99.90;;;;;;5091984;28;20258;-73
2021/10/21 10:54:51;;;;;;;3.97;1.03;;;20.00;99.90;;;;;;5092100;28;20174;-75
2021/10/21 10:57:38;;;;;;;6.90;1.50;;;19.90;99.90;;;;;;5092115;28;20179;-73
2021/10/21 11:00:51;;;;;;;2.30;0.80;;;19.90;99.90;;;;;;5071745;28;20191;-73
2021/10/21 11:03:31;;;;;;;4.50;1.23;;;19.80;99.90;;;;;;5078228;28;20175;-73
2021/10/21 11:06:03;;;;;;;4.20;1.37;;;19.80;99.90;;;;;;5090029;28;20244;-73
2021/10/21 11:09:10;;;;;;;3.77;1.60;;;19.80;99.90;;;;;;5091793;28;20210;-72
2021/10/21 11:11:59;;;;;;;7.57;1.90;;;19.70;99.90;;;;;;5080669;28;20220;-72
2021/10/21 11:14:37;;;;;;;7.97;1.73;;;19.70;99.90;;;;;;5094905;28;20279;-73
2021/10/21 11:17:04;;;;;;;3.30;1.10;;;19.60;99.90;;;;;;5095871;28;20178;-72
2021/10/21 11:19:47;;;;;;;2.40;1.10;;;19.60;99.90;;;;;;5095283;28;20729;-73
2021/10/21 11:22:21;;;;;;;5.20;1.50;;;19.50;99.90;;;;;;5086317;28;20199;-73
2021/10/21 11:24:53;;;;;;;4.33;1.50;;;19.40;99.90;;;;;;5085397;28;20548;-73
2021/10/21 11:27:35;;;;;;;4.43;1.83;;;19.40;99.90;;;;;;5095064;28;20175;-72
2021/10/21 11:30:09;;;;;;;5.03;1.43;;;19.40;99.90;;;;;;5094275;28;20701;-72
2021/10/21 11:32:39;;;;;;;5.37;1.77;;;19.40;99.90;;;;;;5081059;28;20292;-73
2021/10/21 11:35:12;;;;;;;4.87;1.23;;;19.30;99.90;;;;;;5095405;28;20534;-73
2021/10/21 11:37:57;;;;;;;8.20;1.97;;;19.30;99.90;;;;;;5094461;28;20182;-75
2021/10/21 11:40:29;;;;;;;4.33;1.70;;;19.20;99.90;;;;;;5086480;28;20204;-74
2021/10/21 11:42:59;;;;;;;4.67;2.30;;;19.20;99.90;;;;;;5081449;28;20614;-73
2021/10/21 11:45:28;;;;;;;5.47;1.60;;;19.20;99.90;;;;;;5094759;28;20175;-73
2021/10/21 11:47:57;;;;;;;6.23;1.80;;;19.10;99.90;;;;;;5093695;28;20177;-73
2021/10/21 11:50:35;;;;;;;6.40;2.20;;;19.10;99.90;;;;;;5094926;28;20315;-74
2021/10/21 11:53:03;;;;;;;3.63;1.70;;;19.10;99.90;;;;;;5094221;28;20203;-73
2021/10/21 11:55:32;;;;;;;3.00;1.40;;;19.00;99.90;;;;;;5095106;28;20315;-73
2021/10/21 11:58:10;;;;;;;5.37;1.37;;;19.00;99.90;;;;;;5084393;28;20266;-74
2021/10/21 12:00:38;;;;;;;4.83;1.30;;;19.00;99.90;;;;;;5091200;28;20231;-73
2021/10/21 12:03:05;;;;;;;4.27;1.60;;;19.00;99.90;;;;;;5094794;28;20178;-73
2021/10/21 12:05:37;;;;;;;3.87;1.50;;;18.90;99.90;;;;;;5094683;28;20532;-73
2021/10/21 12:08:05;;;;;;;3.73;1.37;;;18.90;99.90;;;;;;5094364;28;20251;-76
2021/10/21 12:10:40;;;;;;;6.70;1.50;;;18.80;99.90;;;;;;5094519;28;20182;-73
2021/10/21 12:13:09;;;;;;;7.90;1.93;;;18.80;99.90;;;;;;5094031;28;20237;-73
2021/10/21 12:15:41;;;;;;;4.70;1.50;;;18.80;99.90;;;;;;5093672;28;20182;-74
2021/10/21 12:18:10;;;;;;;10.20;2.03;;;18.80;99.90;;;;;;5094257;28;20183;-74
2021/10/21 12:20:46;;;;;;;6.30;1.87;;;18.70;99.90;;;;;;5094479;28;20182;-73
2021/10/21 12:23:28;;;;;;;7.17;1.83;;;18.70;99.90;;;;;;5080447;28;20196;-72
2021/10/21 12:26:04;;;;;;;5.90;1.50;;;18.70;99.90;;;;;;5094013;28;20251;-75
2021/10/21 12:28:47;;;;;;;3.53;1.67;;;18.60;99.90;;;;;;5094377;28;20167;-75
2021/10/21 12:31:29;;;;;;;5.00;1.80;;;18.60;99.90;;;;;;5091264;28;20170;-75
2021/10/21 12:34:02;;;;;;;11.37;2.23;;;18.60;99.90;;;;;;5093923;28;20214;-74
2021/10/21 12:36:30;;;;;;;6.00;2.00;;;18.60;99.90;;;;;;5094304;28;20202;-75
2021/10/21 12:39:13;;;;;;;4.17;1.60;;;18.60;99.90;;;;;;5092228;28;20193;-74
2021/10/21 12:41:52;;;;;;;4.30;1.43;;;18.60;99.90;;;;;;5087274;28;20276;-75
2021/10/21 12:44:23;;;;;;;6.50;1.80;;;18.60;99.90;;;;;;5093731;28;20174;-76
2021/10/21 12:46:50;;;;;;;7.10;2.10;;;18.60;99.90;;;;;;5092931;28;20652;-75
2021/10/21 12:49:22;;;;;;;5.87;1.57;;;18.50;99.90;;;;;;5092922;28;20174;-76
2021/10/21 12:51:50;;;;;;;3.97;1.50;;;18.50;99.90;;;;;;5081395;28;20590;-76
2021/10/21 12:54:26;;;;;;;5.03;1.83;;;18.50;99.90;;;;;;5090757;28;20190;-75
2021/10/21 12:56:55;;;;;;;7.13;1.70;;;18.40;99.90;;;;;;5092712;28;20279;-75
2021/10/21 12:59:25;;;;;;;2.40;1.40;;;18.40;99.90;;;;;;5093044;28;20236;-75